Time;durP1;ratioP1;P1;durP2;ratioP2;P2;SDS_P1;SDS_P2;PMS_P1;PMS_P2;Temp;Humidity;BMP_temperature;BMP_pressure;BME280_temperature;BME280_humidity;BME280_pressure;Samples;Min_cycle;Max_cycle;Signal;HPM_P1;HPM_P2
2021/07/11 00:00:05;;;;;;;7.28;6.57;;;;;;;25.20;100.00;96244.16;5069780;28;20483;-50
2021/07/11 00:02:34;;;;;;;7.65;5.63;;;;;;;24.79;100.00;96246.03;5067907;28;20056;-55
2021/07/11 00:05:04;;;;;;;7.45;6.13;;;;;;;26.04;100.00;96261.22;5068670;28;20067;-53
2021/07/11 00:07:32;;;;;;;7.03;5.80;;;;;;;24.52;100.00;96265.44;5074506;28;20094;-53
2021/07/11 00:10:01;;;;;;;5.15;4.20;;;;;;;25.25;100.00;96271.22;5069434;28;20068;-51
2021/07/11 00:12:29;;;;;;;5.55;4.30;;;;;;;25.51;100.00;96276.00;5067738;28;20060;-52
2021/07/11 00:14:59;;;;;;;6.80;4.00;;;;;;;25.51;100.00;96270.59;5050525;28;20036;-56
2021/07/11 00:17:28;;;;;;;6.28;4.00;;;;;;;25.36;100.00;96281.13;5071592;28;20068;-54
2021/07/11 00:19:56;;;;;;;4.85;3.50;;;;;;;26.03;100.00;96266.88;5067744;28;20048;-54
2021/07/11 00:22:25;;;;;;;3.90;3.55;;;;;;;25.31;100.00;96270.25;5070506;28;20080;-52
2021/07/11 00:24:53;;;;;;;4.35;3.47;;;;;;;25.23;100.00;96274.16;5049632;28;20068;-55
2021/07/11 00:27:22;;;;;;;3.90;3.50;;;;;;;25.12;100.00;96282.28;5069947;28;20072;-55
2021/07/11 00:29:50;;;;;;;3.72;3.25;;;;;;;24.72;100.00;96278.53;5069378;28;20064;-53
2021/07/11 00:32:20;;;;;;;3.25;2.95;;;;;;;25.11;100.00;96286.88;5068384;28;20067;-53
2021/07/11 00:34:49;;;;;;;4.30;2.30;;;;;;;23.68;100.00;96283.72;5071329;28;20072;-55
2021/07/11 00:37:17;;;;;;;5.32;2.15;;;;;;;23.45;100.00;96295.19;5068217;28;20388;-54
2021/07/11 00:39:46;;;;;;;2.85;1.98;;;;;;;23.44;100.00;96299.78;5068327;28;20419;-51
2021/07/11 00:42:14;;;;;;;2.10;1.90;;;;;;;23.02;100.00;96298.94;5068647;28;20064;-52
2021/07/11 00:44:43;;;;;;;1.90;1.67;;;;;;;22.94;100.00;96305.41;5068544;28;20063;-55
2021/07/11 00:47:12;;;;;;;6.55;2.10;;;;;;;23.17;100.00;96317.34;5049922;28;20067;-52
2021/07/11 00:49:43;;;;;;;3.00;2.08;;;;;;;22.66;100.00;96323.94;5067661;28;20606;-52
2021/07/11 00:52:12;;;;;;;1.67;1.50;;;;;;;22.22;100.00;96323.97;5067752;28;20064;-54
2021/07/11 00:54:41;;;;;;;3.03;1.65;;;;;;;22.25;100.00;96328.06;5067549;28;20064;-53
2021/07/11 00:57:09;;;;;;;5.55;1.63;;;;;;;21.78;100.00;96327.59;5067753;28;20064;-53
2021/07/11 00:59:39;;;;;;;2.00;1.80;;;;;;;22.52;100.00;96336.69;5050313;28;20064;-55
2021/07/11 01:02:10;;;;;;;2.08;1.88;;;;;;;22.53;100.00;96346.38;5066149;28;20067;-55
2021/07/11 01:04:44;;;;;;;3.60;1.90;;;;;;;23.20;100.00;96339.22;5051039;28;20076;-52
2021/07/11 01:07:13;;;;;;;5.07;1.88;;;;;;;22.30;100.00;96352.44;5066439;28;20056;-54
2021/07/11 01:09:43;;;;;;;2.72;1.90;;;;;;;23.04;100.00;96349.78;5068339;28;20413;-52
2021/07/11 01:12:16;;;;;;;3.58;1.80;;;;;;;22.78;100.00;96356.25;5066921;28;20063;-56
2021/07/11 01:14:46;;;;;;;2.58;1.95;;;;;;;22.40;100.00;96355.44;5068318;28;20048;-53
2021/07/11 01:17:15;;;;;;;2.40;1.95;;;;;;;22.78;100.00;96354.41;5052312;28;20458;-52
2021/07/11 01:20:02;;;;;;;4.47;2.50;;;;;;;22.33;100.00;96351.97;5068898;28;20071;-51
2021/07/11 01:22:36;;;;;;;4.10;2.30;;;;;;;22.69;100.00;96356.56;5061933;28;20493;-54
2021/07/11 01:25:07;;;;;;;3.33;2.08;;;;;;;22.27;100.00;96350.19;5063518;28;20075;-53
2021/07/11 01:27:37;;;;;;;3.90;2.00;;;;;;;22.02;100.00;96353.66;5065607;28;20072;-53
2021/07/11 01:30:08;;;;;;;2.35;2.15;;;;;;;22.33;100.00;96343.91;5043783;28;20068;-52
2021/07/11 01:32:37;;;;;;;3.35;2.20;;;;;;;22.05;100.00;96345.16;5067233;28;20090;-54
2021/07/11 01:35:06;;;;;;;3.72;2.10;;;;;;;22.41;100.00;96350.88;5066184;28;20048;-51
2021/07/11 01:37:35;;;;;;;2.80;2.00;;;;;;;22.00;100.00;96344.19;5069069;28;20091;-51
2021/07/11 01:40:06;;;;;;;2.85;2.22;;;;;;;22.22;100.00;96342.75;5064877;28;20071;-54
2021/07/11 01:42:37;;;;;;;3.80;2.10;;;;;;;22.47;100.00;96342.75;5066254;28;20076;-51
2021/07/11 01:45:05;;;;;;;;;;;;;;;22.51;100.00;96340.44;5052466;28;20120;-52
2021/07/11 01:47:35;;;;;;;5.18;2.35;;;;;;;22.28;100.00;96351.81;5067448;28;20434;-51
2021/07/11 01:50:05;;;;;;;3.97;2.58;;;;;;;22.46;100.00;96351.00;5065595;28;20063;-54
2021/07/11 01:52:34;;;;;;;4.32;2.10;;;;;;;21.73;100.00;96352.44;5068547;28;20064;-52
2021/07/11 01:55:04;;;;;;;2.67;2.15;;;;;;;22.35;100.00;96346.38;5064006;28;20071;-53
2021/07/11 01:57:32;;;;;;;2.67;1.95;;;;;;;21.81;100.00;96349.47;5067082;28;20064;-51
2021/07/11 02:00:02;;;;;;;2.15;1.90;;;;;;;22.39;100.00;96340.31;5065808;28;20078;-53
2021/07/11 02:02:30;;;;;;;2.50;2.13;;;;;;;22.77;100.00;96343.88;5064139;28;20110;-53
2021/07/11 02:04:59;;;;;;;3.55;2.30;;;;;;;22.35;100.00;96346.38;5066304;28;20513;-50
2021/07/11 02:07:27;;;;;;;3.55;2.30;;;;;;;22.45;100.00;96336.75;5047924;28;20060;-55
2021/07/11 02:09:56;;;;;;;2.92;1.95;;;;;;;22.21;100.00;96346.50;5064330;28;20522;-56
2021/07/11 02:12:25;;;;;;;4.22;2.38;;;;;;;22.15;100.00;96344.69;5066637;28;20533;-55
2021/07/11 02:14:54;;;;;;;4.20;2.40;;;;;;;22.07;100.00;96342.25;5065993;28;20033;-51
2021/07/11 02:17:27;;;;;;;2.20;2.00;;;;;;;22.16;100.00;96343.66;5063323;28;20092;-53
2021/07/11 02:19:59;;;;;;;3.83;2.30;;;;;;;22.31;100.00;96337.94;5066131;28;20079;-51
2021/07/11 02:22:28;;;;;;;3.60;2.10;;;;;;;22.40;100.00;96341.16;5051933;28;20068;-52
2021/07/11 02:24:57;;;;;;;4.07;2.13;;;;;;;22.27;100.00;96353.69;5044628;28;20075;-54
2021/07/11 02:27:26;;;;;;;4.60;2.10;;;;;;;21.95;100.00;96352.06;5066057;28;20391;-52
2021/07/11 02:29:57;;;;;;;4.20;2.45;;;;;;;22.44;100.00;96348.56;5066505;28;20064;-53
2021/07/11 02:32:30;;;;;;;4.13;2.05;;;;;;;22.07;100.00;96353.00;5065023;28;20075;-50
2021/07/11 02:34:59;;;;;;;2.83;1.75;;;;;;;22.09;100.00;96347.41;5063130;28;20061;-54
2021/07/11 02:37:28;;;;;;;2.65;2.05;;;;;;;22.74;100.00;96347.81;5069006;28;20091;-52
2021/07/11 02:39:57;;;;;;;1.98;1.77;;;;;;;21.78;100.00;96355.31;5066045;28;20060;-50
2021/07/11 02:42:26;;;;;;;3.17;2.20;;;;;;;22.71;100.00;96350.94;5065168;28;20068;-54
2021/07/11 02:44:56;;;;;;;3.45;2.05;;;;;;;22.45;100.00;96354.75;5065550;28;20085;-54
2021/07/11 02:47:28;;;;;;;2.10;1.90;;;;;;;21.95;100.00;96357.44;5066193;28;20118;-51
2021/07/11 02:50:00;;;;;;;2.40;1.80;;;;;;;21.91;100.00;96366.97;5065202;28;20068;-54
2021/07/11 02:52:30;;;;;;;2.75;1.67;;;;;;;22.44;100.00;96367.38;5067523;28;20072;-53
2021/07/11 02:55:00;;;;;;;4.70;1.60;;;;;;;22.16;100.00;96372.38;5064241;28;20507;-55
2021/07/11 02:57:30;;;;;;;2.63;1.73;;;;;;;22.30;100.00;96373.06;5066046;28;20067;-53
2021/07/11 03:00:00;;;;;;;2.78;1.88;;;;;;;22.63;100.00;96370.88;5066247;28;20060;-53
2021/07/11 03:02:30;;;;;;;1.80;1.55;;;;;;;22.20;100.00;96368.22;5064212;28;20089;-54
2021/07/11 03:05:00;;;;;;;2.67;1.75;;;;;;;22.15;100.00;96376.09;5066073;28;20135;-54
2021/07/11 03:07:28;;;;;;;1.75;1.40;;;;;;;21.61;100.00;96374.81;5069218;28;20076;-52
2021/07/11 03:09:56;;;;;;;1.80;1.50;;;;;;;21.69;100.00;96377.25;5066367;28;20065;-52
2021/07/11 03:12:25;;;;;;;3.78;1.80;;;;;;;22.25;100.00;96368.38;5068206;28;20422;-51
2021/07/11 03:14:54;;;;;;;2.20;1.63;;;;;;;22.02;100.00;96375.16;5068154;28;20072;-54
2021/07/11 03:17:24;;;;;;;1.30;1.20;;;;;;;21.40;100.00;96368.72;5069031;28;20063;-52
2021/07/11 03:19:55;;;;;;;1.40;1.27;;;;;;;21.55;100.00;96371.97;5070101;28;20532;-53
2021/07/11 03:22:26;;;;;;;2.05;1.40;;;;;;;21.88;100.00;96370.91;5071497;28;20080;-52
2021/07/11 03:24:57;;;;;;;3.30;1.30;;;;;;;21.63;100.00;96378.94;5069350;28;20458;-53
2021/07/11 03:27:28;;;;;;;1.38;1.27;;;;;;;21.53;100.00;96375.88;5066424;28;20067;-50
2021/07/11 03:30:04;;;;;;;1.42;1.10;;;;;;;21.05;100.00;96377.13;5069221;28;20706;-54
2021/07/11 03:32:36;;;;;;;1.40;1.30;;;;;;;22.02;100.00;96371.63;5069923;28;20514;-50
2021/07/11 03:35:08;;;;;;;1.20;1.10;;;;;;;21.17;100.00;96360.38;5051657;28;20048;-54
2021/07/11 03:37:41;;;;;;;1.75;1.20;;;;;;;21.54;100.00;96356.06;5071384;28;20088;-50
2021/07/11 03:40:11;;;;;;;1.17;1.08;;;;;;;21.41;100.00;96351.63;5069095;28;20064;-56
2021/07/11 03:42:42;;;;;;;1.27;1.17;;;;;;;21.72;100.00;96345.44;5068990;28;20060;-54
2021/07/11 03:45:11;;;;;;;1.40;1.30;;;;;;;22.00;100.00;96344.19;5068204;28;20056;-55
2021/07/11 03:47:42;;;;;;;1.48;1.20;;;;;;;22.07;100.00;96349.50;5068934;28;20435;-54
2021/07/11 03:50:12;;;;;;;;;;;;;;;21.44;100.00;96347.66;5070427;28;20088;-53
2021/07/11 03:52:47;;;;;;;1.20;1.10;;;;;;;22.23;100.00;96351.66;5067757;28;20390;-54
2021/07/11 03:55:16;;;;;;;1.30;1.20;;;;;;;21.51;100.00;96354.66;5067373;28;20061;-54
2021/07/11 03:57:47;;;;;;;1.20;1.10;;;;;;;22.48;100.00;96357.81;5068064;28;20064;-54
2021/07/11 04:00:16;;;;;;;2.03;1.27;;;;;;;22.35;100.00;96360.63;5066973;28;20068;-53
2021/07/11 04:02:47;;;;;;;1.30;1.20;;;;;;;23.04;100.00;96368.63;5064721;28;20450;-51
2021/07/11 04:05:19;;;;;;;3.15;1.20;;;;;;;22.16;100.00;96370.53;5066840;28;20060;-52
2021/07/11 04:07:50;;;;;;;1.45;1.35;;;;;;;22.65;100.00;96366.13;5068630;28;20075;-50
2021/07/11 04:10:22;;;;;;;1.42;1.10;;;;;;;22.09;100.00;96374.25;5062899;28;21448;-52
2021/07/11 04:12:50;;;;;;;3.13;1.00;;;;;;;22.49;100.00;96370.19;5067512;28;20151;-53
2021/07/11 04:15:19;;;;;;;2.70;1.20;;;;;;;22.56;100.00;96369.31;5063222;28;20075;-52
2021/07/11 04:17:49;;;;;;;1.10;1.00;;;;;;;22.67;100.00;96357.81;5062773;28;20087;-52
2021/07/11 04:20:20;;;;;;;2.08;1.15;;;;;;;21.98;100.00;96362.34;5067392;28;20071;-53
2021/07/11 04:22:49;;;;;;;1.20;1.10;;;;;;;22.26;100.00;96361.94;5070404;28;20075;-55
2021/07/11 04:25:18;;;;;;;1.20;1.10;;;;;;;21.66;100.00;96361.56;5062410;28;20068;-48
2021/07/11 04:27:47;;;;;;;1.52;1.10;;;;;;;22.55;100.00;96356.94;5066367;28;20064;-56
2021/07/11 04:30:16;;;;;;;2.35;1.13;;;;;;;21.99;100.00;96354.09;5061896;28;20094;-52
2021/07/11 04:32:45;;;;;;;2.00;1.23;;;;;;;21.53;100.00;96360.59;5063135;28;20452;-49
2021/07/11 04:35:14;;;;;;;1.60;0.93;;;;;;;22.27;100.00;96352.88;5067978;28;20040;-54
2021/07/11 04:37:44;;;;;;;1.10;1.00;;;;;;;21.50;100.00;96350.31;5067578;28;20080;-52
2021/07/11 04:40:14;;;;;;;2.05;1.05;;;;;;;21.60;100.00;96349.00;5068772;28;20120;-54
2021/07/11 04:42:43;;;;;;;1.95;1.00;;;;;;;21.16;100.00;96353.34;5060561;28;20095;-48
2021/07/11 04:45:12;;;;;;;4.75;1.00;;;;;;;20.80;100.00;96347.53;5064922;28;20751;-51
2021/07/11 04:47:40;;;;;;;1.20;1.10;;;;;;;;;;5063235;28;20076;-52
2021/07/11 04:50:10;;;;;;;2.55;1.05;;;;;;;21.68;100.00;96352.28;5067587;28;20076;-55
2021/07/11 04:52:39;;;;;;;1.13;1.05;;;;;;;21.11;100.00;96343.28;5067026;28;20091;-51
2021/07/11 04:55:11;;;;;;;2.17;1.00;;;;;;;21.16;100.00;96346.13;5067248;28;20028;-51
2021/07/11 04:57:40;;;;;;;1.48;0.90;;;;;;;21.48;100.00;96352.41;5063887;28;20083;-53
2021/07/11 05:00:11;;;;;;;1.20;1.10;;;;;;;21.16;100.00;96356.03;5062946;28;20096;-54
2021/07/11 05:02:39;;;;;;;;;;;;;;;21.14;100.00;96352.75;5065881;28;20076;-53
2021/07/11 05:05:09;;;;;;;1.20;1.10;;;;;;;21.53;100.00;96351.75;5065650;28;19971;-49
2021/07/11 05:07:37;;;;;;;2.53;1.05;;;;;;;20.89;100.00;96353.50;5066888;28;20064;-53
2021/07/11 05:10:08;;;;;;;1.55;1.10;;;;;;;21.31;100.00;96351.22;5066491;28;20036;-54
2021/07/11 05:12:39;;;;;;;1.27;1.10;;;;;;;21.56;100.00;96357.50;5063454;28;20083;-54
2021/07/11 05:15:08;;;;;;;2.45;1.10;;;;;;;21.44;100.00;96361.06;5062306;28;20072;-53
2021/07/11 05:17:37;;;;;;;1.07;0.90;;;;;;;21.79;100.00;96369.53;5064386;28;20060;-50
2021/07/11 05:20:07;;;;;;;2.35;1.30;;;;;;;23.00;100.00;96365.56;5069906;28;20498;-53
2021/07/11 05:22:35;;;;;;;1.52;1.17;;;;;;;22.04;100.00;96374.91;5067798;28;20090;-50
2021/07/11 05:25:06;;;;;;;;;;;;;;;22.00;100.00;96369.16;5066927;28;20056;-52
2021/07/11 05:27:35;;;;;;;1.15;1.15;;;;;;;21.91;100.00;96370.47;5065605;28;19962;-51
2021/07/11 05:30:06;;;;;;;1.35;1.10;;;;;;;22.21;100.00;96369.84;5065634;28;20071;-51
2021/07/11 05:32:35;;;;;;;1.98;1.10;;;;;;;22.47;100.00;96375.00;5064073;28;20064;-49
2021/07/11 05:35:04;;;;;;;1.52;1.00;;;;;;;22.12;100.00;96385.38;5065973;28;20139;-49
2021/07/11 05:37:32;;;;;;;1.27;1.13;;;;;;;22.45;100.00;96387.81;5067111;28;20527;-51
2021/07/11 05:40:01;;;;;;;1.92;1.00;;;;;;;23.40;100.00;96392.78;5063196;28;20522;-51
2021/07/11 05:42:29;;;;;;;2.55;1.00;;;;;;;23.32;100.00;96385.00;5063061;28;20103;-57
2021/07/11 05:44:57;;;;;;;1.60;1.10;;;;;;;23.18;100.00;96388.91;5066051;28;20460;-51
2021/07/11 05:47:27;;;;;;;1.30;1.17;;;;;;;23.35;100.00;96392.63;5062730;28;20060;-53
2021/07/11 05:49:55;;;;;;;1.65;1.20;;;;;;;24.33;100.00;96383.34;5065518;28;20072;-54
2021/07/11 05:52:24;;;;;;;1.25;1.02;;;;;;;23.52;100.00;96386.63;5067438;28;20527;-53
2021/07/11 05:54:52;;;;;;;1.63;1.13;;;;;;;23.85;100.00;96399.66;5065691;28;20060;-55
2021/07/11 05:57:21;;;;;;;2.58;1.30;;;;;;;23.57;100.00;96384.91;5066347;28;20059;-51
2021/07/11 05:59:49;;;;;;;1.63;1.10;;;;;;;23.56;100.00;96394.00;5063719;28;20102;-55
2021/07/11 06:02:17;;;;;;;3.70;1.30;;;;;;;24.15;100.00;96399.59;5064547;28;20136;-54
2021/07/11 06:04:47;;;;;;;1.55;1.08;;;;;;;25.03;99.14;96408.66;5066783;28;20550;-52
2021/07/11 06:07:15;;;;;;;3.25;1.08;;;;;;;25.17;95.01;96398.44;5065788;28;20067;-50
2021/07/11 06:09:44;;;;;;;3.00;1.00;;;;;;;24.73;100.00;96406.91;5071728;28;20067;-52
2021/07/11 06:12:13;;;;;;;1.60;1.10;;;;;;;24.66;100.00;96403.53;5064153;28;20526;-52
2021/07/11 06:14:42;;;;;;;1.40;1.08;;;;;;;25.04;96.99;96413.81;5065487;28;20048;-52
2021/07/11 06:17:10;;;;;;;1.30;1.05;;;;;;;25.20;97.30;96401.50;5065737;28;20075;-54
2021/07/11 06:19:38;;;;;;;1.58;1.10;;;;;;;25.23;98.43;96403.72;5067776;28;20080;-50
2021/07/11 06:22:08;;;;;;;1.58;1.08;;;;;;;25.18;95.52;96406.28;5064144;28;20522;-54
2021/07/11 06:24:37;;;;;;;1.50;1.10;;;;;;;25.76;87.69;96405.28;5066384;28;20063;-53
2021/07/11 06:27:05;;;;;;;1.92;1.08;;;;;;;25.49;92.11;96407.72;5066010;28;20132;-51
2021/07/11 06:29:33;;;;;;;1.30;1.00;;;;;;;25.89;88.26;96414.19;5065854;28;20460;-53
2021/07/11 06:32:02;;;;;;;0.90;0.90;;;;;;;26.74;75.72;96411.28;5065145;28;20088;-50
2021/07/11 06:34:30;;;;;;;1.17;1.02;;;;;;;26.68;73.70;96411.47;5070185;28;20087;-54
2021/07/11 06:36:59;;;;;;;0.98;0.90;;;;;;;26.43;77.96;96404.56;5063657;28;20064;-52
2021/07/11 06:39:28;;;;;;;1.27;0.93;;;;;;;26.56;78.95;96419.66;5062503;28;20634;-52
2021/07/11 06:41:57;;;;;;;1.60;1.00;;;;;;;26.11;78.53;96415.09;5064752;28;20060;-49
2021/07/11 06:44:25;;;;;;;2.13;1.05;;;;;;;26.26;81.40;96418.09;5065841;28;20076;-57
2021/07/11 06:46:53;;;;;;;1.20;1.00;;;;;;;26.41;80.62;96412.09;5063843;28;20080;-52
2021/07/11 06:49:22;;;;;;;1.52;1.20;;;;;;;25.61;88.64;96413.09;5067249;28;20483;-52
2021/07/11 06:51:51;;;;;;;2.37;0.90;;;;;;;25.95;86.36;96413.22;5067524;28;20526;-52
2021/07/11 06:54:19;;;;;;;1.35;1.05;;;;;;;25.47;93.56;96411.75;5070505;28;20549;-50
2021/07/11 06:56:49;;;;;;;1.60;1.20;;;;;;;25.78;91.06;96422.06;5069271;28;20075;-50
2021/07/11 06:59:17;;;;;;;1.10;1.00;;;;;;;25.40;97.76;96425.38;5069019;28;20097;-51
2021/07/11 07:01:46;;;;;;;1.60;1.23;;;;;;;24.76;100.00;96430.72;5070349;28;20080;-52
2021/07/11 07:04:14;;;;;;;1.23;1.13;;;;;;;25.79;95.62;96431.84;5067574;28;20597;-51
2021/07/11 07:06:43;;;;;;;1.75;1.30;;;;;;;25.75;97.10;96437.94;5067840;28;20064;-52
2021/07/11 07:09:11;;;;;;;1.10;1.00;;;;;;;25.85;95.28;96432.75;5066934;28;20067;-53
2021/07/11 07:11:39;;;;;;;1.70;1.10;;;;;;;25.21;100.00;96440.91;5064184;28;20481;-51
2021/07/11 07:14:09;;;;;;;2.42;1.27;;;;;;;25.83;100.00;96434.06;5067426;28;20083;-53
2021/07/11 07:16:37;;;;;;;2.33;1.30;;;;;;;25.38;100.00;96440.19;5068693;28;20147;-52
2021/07/11 07:19:06;;;;;;;1.30;1.10;;;;;;;25.62;100.00;96432.81;5068647;28;20476;-51
2021/07/11 07:21:35;;;;;;;1.10;1.00;;;;;;;25.47;100.00;96439.56;5069220;28;20068;-52
2021/07/11 07:24:03;;;;;;;1.50;1.27;;;;;;;25.98;96.93;96443.28;5068255;28;20100;-51
2021/07/11 07:26:32;;;;;;;1.20;1.10;;;;;;;26.92;88.79;96444.56;5063622;28;20071;-54
2021/07/11 07:29:00;;;;;;;1.58;1.20;;;;;;;26.68;89.96;96443.94;5067859;28;20080;-53
2021/07/11 07:31:30;;;;;;;1.52;1.10;;;;;;;26.25;88.89;96448.88;5068586;28;20156;-50
2021/07/11 07:33:58;;;;;;;1.98;1.10;;;;;;;26.08;98.82;96444.50;5070229;28;20064;-55
2021/07/11 07:36:27;;;;;;;1.20;1.10;;;;;;;26.85;89.89;96441.19;5068923;28;20072;-53
2021/07/11 07:38:55;;;;;;;1.73;1.00;;;;;;;26.88;82.75;96444.22;5069419;28;20068;-51
2021/07/11 07:41:24;;;;;;;4.20;1.13;;;;;;;25.83;97.26;96440.28;5068896;28;20072;-50
2021/07/11 07:43:53;;;;;;;1.07;0.90;;;;;;;26.13;90.94;96445.44;5068510;28;20486;-49
2021/07/11 07:46:21;;;;;;;1.42;1.10;;;;;;;25.92;88.67;96444.25;5070194;28;20083;-51
2021/07/11 07:48:51;;;;;;;1.10;1.00;;;;;;;25.42;97.84;96452.94;5066710;28;20068;-50
2021/07/11 07:51:20;;;;;;;1.30;1.13;;;;;;;25.44;99.31;96444.63;5068590;28;20072;-53
2021/07/11 07:53:49;;;;;;;1.75;1.20;;;;;;;25.68;98.54;96451.59;5067993;28;20080;-52
2021/07/11 07:56:17;;;;;;;1.10;1.00;;;;;;;25.09;100.00;96457.09;5066523;28;20075;-54
2021/07/11 07:58:45;;;;;;;1.48;1.00;;;;;;;24.44;100.00;96467.19;5071687;28;20090;-52
2021/07/11 08:01:14;;;;;;;1.92;1.25;;;;;;;26.05;90.45;96456.66;5066208;28;20060;-53
2021/07/11 08:03:42;;;;;;;2.05;1.10;;;;;;;24.49;100.00;96465.41;5067333;28;20068;-52
2021/07/11 08:06:12;;;;;;;1.30;1.00;;;;;;;25.79;100.00;96466.97;5068221;28;20515;-51
2021/07/11 08:08:42;;;;;;;1.10;1.00;;;;;;;26.23;92.54;96463.72;5067806;28;20088;-52
2021/07/11 08:11:12;;;;;;;1.40;1.10;;;;;;;26.55;89.53;96466.72;5067162;28;20052;-54
2021/07/11 08:13:41;;;;;;;1.35;1.17;;;;;;;24.99;98.37;96475.75;5067655;28;20073;-52
2021/07/11 08:16:09;;;;;;;2.10;1.15;;;;;;;24.78;100.00;96479.06;5063266;28;20072;-49
2021/07/11 08:18:38;;;;;;;1.30;1.20;;;;;;;25.23;100.00;96476.59;5064406;28;20068;-50
2021/07/11 08:21:06;;;;;;;3.22;1.10;;;;;;;25.43;100.00;96472.66;5057292;28;20694;-51
2021/07/11 08:23:36;;;;;;;1.77;1.20;;;;;;;24.92;100.00;96474.25;5065937;28;20081;-50
2021/07/11 08:26:04;;;;;;;1.25;1.10;;;;;;;24.85;100.00;96469.78;5066931;28;20088;-53
2021/07/11 08:28:33;;;;;;;4.20;1.35;;;;;;;24.66;100.00;96473.63;5065260;28;20080;-48
2021/07/11 08:31:01;;;;;;;1.77;1.20;;;;;;;24.38;100.00;96474.28;5068953;28;20083;-53
2021/07/11 08:33:29;;;;;;;1.55;1.17;;;;;;;24.90;100.00;96473.66;5062926;28;20068;-50
2021/07/11 08:35:58;;;;;;;1.52;1.15;;;;;;;25.08;100.00;96474.34;5063812;28;20096;-50
2021/07/11 08:38:27;;;;;;;1.48;1.20;;;;;;;24.37;100.00;96480.72;5067967;28;20071;-52
2021/07/11 08:40:57;;;;;;;1.80;1.20;;;;;;;23.99;100.00;96473.00;5067011;28;20076;-50
2021/07/11 08:43:25;;;;;;;2.03;1.40;;;;;;;24.85;100.00;96479.75;5069156;28;20084;-54
2021/07/11 08:45:54;;;;;;;2.05;1.30;;;;;;;25.12;100.00;96479.28;5069326;28;20672;-50
2021/07/11 08:48:22;;;;;;;1.10;1.00;;;;;;;24.35;100.00;96483.63;5067831;28;20068;-53
2021/07/11 08:50:51;;;;;;;1.35;1.23;;;;;;;25.12;100.00;96490.09;5063095;28;20068;-51
2021/07/11 08:53:20;;;;;;;3.00;1.30;;;;;;;24.87;100.00;96493.81;5062822;28;20174;-51
2021/07/11 08:55:48;;;;;;;1.70;1.27;;;;;;;25.41;100.00;96483.72;5066134;28;20088;-49
2021/07/11 08:58:18;;;;;;;3.05;1.40;;;;;;;25.84;95.21;96476.22;5063430;28;20244;-52
2021/07/11 09:00:47;;;;;;;2.60;1.30;;;;;;;25.72;99.42;96482.47;5066067;28;20072;-52
2021/07/11 09:03:16;;;;;;;2.38;1.48;;;;;;;27.05;87.38;96475.84;5064849;28;20065;-51
2021/07/11 09:05:44;;;;;;;1.85;1.50;;;;;;;26.38;91.64;96477.47;5066263;28;20088;-50
2021/07/11 09:08:15;;;;;;;2.78;1.58;;;;;;;24.75;100.00;96493.81;5068315;28;20455;-50
2021/07/11 09:10:48;;;;;;;1.63;1.45;;;;;;;25.89;100.00;96487.13;5066866;28;20080;-50
2021/07/11 09:13:19;;;;;;;2.22;1.52;;;;;;;25.40;100.00;96486.66;5064623;28;20465;-50
2021/07/11 09:15:50;;;;;;;2.90;1.60;;;;;;;25.65;100.00;96486.38;5067219;28;20084;-51
2021/07/11 09:18:23;;;;;;;2.22;1.48;;;;;;;25.73;100.00;96497.59;5066521;28;20079;-55
2021/07/11 09:20:54;;;;;;;1.88;1.67;;;;;;;25.13;100.00;96500.66;5066152;28;20068;-55
2021/07/11 09:23:23;;;;;;;1.67;1.58;;;;;;;25.05;100.00;96490.19;5067237;28;20462;-55
2021/07/11 09:26:05;;;;;;;2.55;1.73;;;;;;;25.94;95.28;96490.75;5067059;28;20764;-51
2021/07/11 09:28:38;;;;;;;2.58;1.70;;;;;;;26.12;100.00;96488.91;5064503;28;20289;-51
2021/07/11 09:31:09;;;;;;;1.77;1.50;;;;;;;26.09;96.16;96492.94;5067018;28;20060;-51
2021/07/11 09:33:40;;;;;;;2.08;1.40;;;;;;;26.63;87.14;96492.53;5066351;28;20162;-52
2021/07/11 09:36:12;;;;;;;2.70;1.55;;;;;;;26.93;84.95;96492.19;5064662;28;20072;-48
2021/07/11 09:38:40;;;;;;;3.05;1.75;;;;;;;26.94;86.48;96504.66;5066843;28;20533;-53
2021/07/11 09:41:19;;;;;;;3.45;1.70;;;;;;;26.25;90.59;96494.81;5066858;28;20652;-48
2021/07/11 09:43:51;;;;;;;1.83;1.55;;;;;;;26.32;93.30;96496.56;5068147;28;20080;-52
2021/07/11 09:46:20;;;;;;;5.53;1.88;;;;;;;26.58;83.75;96497.88;5064498;28;20321;-53
2021/07/11 09:48:49;;;;;;;2.30;1.70;;;;;;;27.50;78.10;96497.38;5064737;28;20072;-48
2021/07/11 09:51:19;;;;;;;1.95;1.60;;;;;;;27.64;73.50;96495.09;5067061;28;20499;-50
2021/07/11 09:53:49;;;;;;;2.33;2.00;;;;;;;27.66;72.79;96499.16;5063644;28;20072;-52
2021/07/11 09:56:30;;;;;;;1.73;1.58;;;;;;;27.59;71.74;96495.84;5065936;28;20462;-49
2021/07/11 09:59:01;;;;;;;3.28;1.63;;;;;;;27.57;73.56;96495.28;5065914;28;20084;-51
2021/07/11 10:01:33;;;;;;;4.00;1.90;;;;;;;27.86;70.24;96490.50;5067713;28;20417;-52
2021/07/11 10:04:03;;;;;;;2.38;1.75;;;;;;;28.90;61.01;96493.94;5064528;28;20064;-51
2021/07/11 10:06:32;;;;;;;2.55;1.75;;;;;;;28.77;62.48;96491.69;5066436;28;20060;-49
2021/07/11 10:09:02;;;;;;;2.45;1.80;;;;;;;27.80;62.40;96496.13;5064943;28;20072;-53
2021/07/11 10:11:31;;;;;;;2.47;1.70;;;;;;;28.69;62.87;96498.38;5066327;28;20485;-51
2021/07/11 10:14:01;;;;;;;2.08;1.52;;;;;;;28.35;62.82;96492.34;5064078;28;20088;-50
2021/07/11 10:16:30;;;;;;;2.22;1.65;;;;;;;30.28;54.12;96491.91;5067780;28;20125;-52
2021/07/11 10:19:01;;;;;;;2.28;1.63;;;;;;;29.69;53.48;96503.13;5063431;28;20700;-51
2021/07/11 10:21:29;;;;;;;;;;;;;;;30.36;51.76;96490.59;5066106;28;20064;-53
2021/07/11 10:23:58;;;;;;;2.63;1.90;;;;;;;30.86;52.43;96489.00;5065124;28;20402;-53
2021/07/11 10:26:36;;;;;;;4.25;1.80;;;;;;;29.04;60.40;96491.63;5062765;28;20069;-52
2021/07/11 10:29:12;;;;;;;2.38;1.80;;;;;;;29.37;62.10;96495.91;5055670;28;20079;-50
2021/07/11 10:31:45;;;;;;;2.95;1.98;;;;;;;29.04;57.70;96492.47;5058685;28;20569;-48
2021/07/11 10:34:34;;;;;;;5.05;1.90;;;;;;;27.77;63.42;96483.06;5065145;28;20423;-53
2021/07/11 10:37:11;;;;;;;;;;;;;;;27.56;67.43;96484.69;5064806;28;20171;-53
2021/07/11 10:39:39;;;;;;;2.30;2.10;;;;;;;30.01;54.38;96487.50;5064895;28;19967;-49
2021/07/11 10:42:09;;;;;;;2.40;1.95;;;;;;;29.17;56.42;96487.63;5060763;28;20074;-53
2021/07/11 10:44:39;;;;;;;3.70;2.00;;;;;;;30.48;52.11;96480.25;5060354;28;20069;-55
2021/07/11 10:47:08;;;;;;;;;;;;;;;30.61;48.09;96479.72;5065447;28;20556;-50
2021/07/11 10:49:38;;;;;;;2.22;1.92;;;;;;;31.48;46.74;96479.63;5063533;28;20520;-53
2021/07/11 10:52:08;;;;;;;2.03;1.75;;;;;;;29.21;54.06;96486.84;5065671;28;20068;-52
2021/07/11 10:54:37;;;;;;;3.22;2.03;;;;;;;29.05;56.08;96485.94;5062537;28;20072;-53
2021/07/11 10:57:07;;;;;;;;;;;;;;;29.51;53.10;96486.19;5061654;28;20060;-53
2021/07/11 10:59:37;;;;;;;2.33;1.90;;;;;;;32.01;43.29;96479.19;5064091;28;19959;-50
2021/07/11 11:02:21;;;;;;;2.15;1.95;;;;;;;32.23;43.62;96484.22;5061733;28;20068;-54
2021/07/11 11:04:59;;;;;;;2.75;1.95;;;;;;;32.37;43.91;96469.66;5068402;28;20108;-51
2021/07/11 11:07:39;;;;;;;2.60;1.90;;;;;;;29.82;48.42;96491.78;5063775;28;21565;-51
2021/07/11 11:10:22;;;;;;;2.22;1.80;;;;;;;30.66;45.76;96477.00;5059350;28;20064;-52
2021/07/11 11:13:09;;;;;;;2.20;1.85;;;;;;;32.93;39.81;96467.59;5064373;28;20060;-53
2021/07/11 11:15:41;;;;;;;2.67;2.10;;;;;;;30.69;44.60;96475.63;5066297;28;20072;-50
2021/07/11 11:18:15;;;;;;;2.67;2.03;;;;;;;33.29;40.69;96473.56;5064592;28;20072;-56
2021/07/11 11:20:44;;;;;;;2.42;1.90;;;;;;;32.88;39.08;96470.38;5060892;28;20500;-53
2021/07/11 11:23:13;;;;;;;3.17;2.50;;;;;;;34.06;40.61;96469.94;5064390;28;20076;-52
2021/07/11 11:25:46;;;;;;;4.20;2.17;;;;;;;33.95;40.66;96463.75;5066712;28;20552;-51
2021/07/11 11:28:25;;;;;;;2.30;2.00;;;;;;;32.75;41.10;96459.00;5061947;28;20488;-49
2021/07/11 11:30:54;;;;;;;3.63;2.13;;;;;;;32.06;42.52;96457.31;5064827;28;20072;-52
2021/07/11 11:33:23;;;;;;;2.45;1.80;;;;;;;31.25;43.10;96461.97;5062212;28;20073;-52
2021/07/11 11:35:52;;;;;;;2.53;2.15;;;;;;;30.21;47.40;96464.16;5059935;28;20069;-48
2021/07/11 11:38:20;;;;;;;2.00;1.80;;;;;;;28.34;54.55;96453.56;5065111;28;20072;-49
2021/07/11 11:40:48;;;;;;;3.25;2.15;;;;;;;30.92;48.21;96444.31;5064767;28;20080;-51
2021/07/11 11:43:23;;;;;;;2.40;2.08;;;;;;;31.30;44.22;96440.16;5062905;28;20234;-50